Time;durP1;ratioP1;P1;durP2;ratioP2;P2;SDS_P1;SDS_P2;PMS_P1;PMS_P2;Temp;Humidity;BMP_temperature;BMP_pressure;BME280_temperature;BME280_humidity;BME280_pressure;Samples;Min_cycle;Max_cycle;Signal;HPM_P1;HPM_P2
2022/07/05 00:02:13;;;;;;;;;;;12.70;99.90;;;;;;5006772;28;20283;-65
2022/07/05 00:04:39;;;;;;;;;;;12.70;99.90;;;;;;5004264;28;19913;-69
2022/07/05 00:07:19;;;;;;;;;;;12.80;99.90;;;;;;4997839;28;20906;-66
2022/07/05 00:09:49;;;;;;;;;;;12.80;99.90;;;;;;5007920;28;19933;-65
2022/07/05 00:12:15;;;;;;;;;;;12.70;99.90;;;;;;5003703;28;19913;-65
2022/07/05 00:14:41;;;;;;;;;;;12.60;99.90;;;;;;4992277;28;20375;-66
2022/07/05 00:17:07;;;;;;;;;;;12.70;99.90;;;;;;4988427;28;19914;-66
2022/07/05 00:19:32;;;;;;;;;;;12.50;99.90;;;;;;5012225;28;19921;-67
2022/07/05 00:21:58;;;;;;;;;;;12.50;99.90;;;;;;5007300;28;20552;-66
2022/07/05 00:24:24;;;;;;;;;;;12.40;99.90;;;;;;5009883;28;19920;-66
2022/07/05 00:26:50;;;;;;;;;;;12.40;99.90;;;;;;5008051;28;19914;-66
2022/07/05 00:29:15;;;;;;;;;;;12.40;99.90;;;;;;5005265;28;19928;-66
2022/07/05 00:31:44;;;;;;;;;;;12.30;99.90;;;;;;5002559;28;20012;-66
2022/07/05 00:34:09;;;;;;;;;;;12.40;99.90;;;;;;5007679;28;20023;-67
2022/07/05 00:36:35;;;;;;;;;;;12.40;99.90;;;;;;5008864;28;20388;-67
2022/07/05 00:39:01;;;;;;;;;;;12.30;99.90;;;;;;5006563;28;19909;-66
2022/07/05 00:41:26;;;;;;;;;;;12.50;99.90;;;;;;5007086;28;20418;-65
2022/07/05 00:43:59;;;;;;;;;;;12.60;99.90;;;;;;5006329;28;19961;-65
2022/07/05 00:46:25;;;;;;;;;;;12.60;99.90;;;;;;5000827;28;19935;-67
2022/07/05 00:48:51;;;;;;;;;;;12.40;99.90;;;;;;5009271;28;20016;-66
2022/07/05 00:51:17;;;;;;;;;;;12.30;99.90;;;;;;5010401;28;19916;-66
2022/07/05 00:53:45;;;;;;;;;;;12.30;99.90;;;;;;5004077;28;20325;-67
2022/07/05 00:56:11;;;;;;;;;;;12.20;99.90;;;;;;5008575;28;19917;-67
2022/07/05 00:58:37;;;;;;;;;;;12.10;99.90;;;;;;5004452;28;19910;-66
2022/07/05 01:01:03;;;;;;;;;;;12.10;99.90;;;;;;5005707;28;20861;-65
2022/07/05 01:03:29;;;;;;;;;;;12.30;99.90;;;;;;5004198;28;19913;-66
2022/07/05 01:05:55;;;;;;;;;;;12.50;99.90;;;;;;5006905;28;20310;-65
2022/07/05 01:08:21;;;;;;;;;;;12.50;99.90;;;;;;5001640;28;20257;-66
2022/07/05 01:10:46;;;;;;;;;;;12.30;99.90;;;;;;5009616;28;19928;-65
2022/07/05 01:13:12;;;;;;;;;;;12.10;99.90;;;;;;5006092;28;20174;-65
2022/07/05 01:15:38;;;;;;;;;;;11.90;99.90;;;;;;5003295;28;20360;-65
2022/07/05 01:18:07;;;;;;;;;;;11.70;99.90;;;;;;5004039;28;19917;-65
2022/07/05 01:20:36;;;;;;;;;;;11.60;99.90;;;;;;4944509;28;1859167;-66
2022/07/05 01:23:04;;;;;;;;;;;11.60;99.90;;;;;;5005373;28;19949;-66
2022/07/05 01:25:30;;;;;;;;;;;11.60;99.90;;;;;;5001265;28;19967;-66
2022/07/05 01:27:56;;;;;;;;;;;11.40;99.90;;;;;;5003681;28;19913;-67
2022/07/05 01:30:22;;;;;;;;;;;11.30;99.90;;;;;;4991365;28;20533;-64
2022/07/05 01:32:47;;;;;;;;;;;11.20;99.90;;;;;;5002130;28;19976;-65
2022/07/05 01:35:14;;;;;;;;;;;11.20;99.90;;;;;;5002831;28;19917;-66
2022/07/05 01:37:39;;;;;;;;;;;11.10;99.90;;;;;;5004467;28;19923;-67
2022/07/05 01:40:06;;;;;;;;;;;11.00;99.90;;;;;;4991340;28;19914;-66
2022/07/05 01:42:32;;;;;;;;;;;11.00;99.90;;;;;;5005723;28;21132;-66
2022/07/05 01:44:58;;;;;;;;;;;11.00;99.90;;;;;;5003351;28;19917;-66
2022/07/05 01:47:23;;;;;;;;;;;11.00;99.90;;;;;;4989687;28;19918;-65
2022/07/05 01:49:50;;;;;;;;;;;10.90;99.90;;;;;;5002672;28;19929;-66
2022/07/05 01:52:16;;;;;;;;;;;10.90;99.90;;;;;;5000772;28;20051;-66
2022/07/05 01:54:43;;;;;;;;;;;10.90;99.90;;;;;;5003138;28;20008;-66
2022/07/05 01:57:08;;;;;;;;;;;10.90;99.90;;;;;;5002565;28;20417;-66
2022/07/05 01:59:34;;;;;;;;;;;11.10;99.90;;;;;;5003976;28;19913;-65
2022/07/05 02:02:00;;;;;;;;;;;11.10;99.90;;;;;;5001801;28;20288;-67
2022/07/05 02:04:26;;;;;;;;;;;11.10;99.90;;;;;;5001053;28;19917;-66
2022/07/05 02:06:51;;;;;;;;;;;10.90;99.90;;;;;;5001551;28;19968;-66
2022/07/05 02:09:17;;;;;;;;;;;10.80;99.90;;;;;;5002708;28;19918;-65
2022/07/05 02:11:42;;;;;;;;;;;10.90;99.90;;;;;;5003093;28;20020;-66
2022/07/05 02:14:08;;;;;;;;;;;10.90;99.90;;;;;;5004461;28;19914;-65
2022/07/05 02:16:33;;;;;;;;;;;10.90;99.90;;;;;;5006300;28;19920;-65
2022/07/05 02:18:59;;;;;;;;;;;11.00;99.90;;;;;;5007875;28;19917;-66
2022/07/05 02:21:26;;;;;;;;;;;10.90;99.90;;;;;;5010458;28;20294;-67
2022/07/05 02:23:51;;;;;;;;;;;10.90;99.90;;;;;;4997668;28;19928;-66
2022/07/05 02:26:17;;;;;;;;;;;10.80;99.90;;;;;;5007724;28;19921;-66
2022/07/05 02:28:42;;;;;;;;;;;10.70;99.90;;;;;;5003274;28;19960;-66
2022/07/05 02:31:08;;;;;;;;;;;10.60;99.90;;;;;;5005039;28;20323;-66
2022/07/05 02:33:34;;;;;;;;;;;10.50;99.90;;;;;;5008117;28;19914;-65
2022/07/05 02:36:18;;;;;;;;;;;10.50;99.90;;;;;;5008607;28;20432;-66
2022/07/05 02:38:43;;;;;;;;;;;10.40;99.90;;;;;;5004485;28;19952;-65
2022/07/05 02:41:10;;;;;;;;;;;10.50;99.90;;;;;;5005872;28;19967;-65
2022/07/05 02:43:36;;;;;;;;;;;10.60;99.90;;;;;;4983641;28;19968;-66
2022/07/05 02:46:02;;;;;;;;;;;10.50;99.90;;;;;;5005926;28;19940;-66
2022/07/05 02:48:27;;;;;;;;;;;10.50;99.90;;;;;;5007825;28;19913;-66
2022/07/05 02:50:53;;;;;;;;;;;10.60;99.90;;;;;;5004999;28;19924;-65
2022/07/05 02:53:19;;;;;;;;;;;10.50;99.90;;;;;;4987662;28;19940;-66
2022/07/05 02:55:44;;;;;;;;;;;10.30;99.90;;;;;;5007775;28;19956;-66
2022/07/05 02:58:10;;;;;;;;;;;10.40;99.90;;;;;;5002260;28;20347;-66
2022/07/05 03:00:35;;;;;;;;;;;10.40;99.90;;;;;;5002637;28;19914;-66
2022/07/05 03:03:01;;;;;;;;;;;10.30;99.90;;;;;;5005736;28;19941;-65
2022/07/05 03:05:27;;;;;;;;;;;10.40;99.90;;;;;;5006355;28;19941;-66
2022/07/05 03:07:53;;;;;;;;;;;10.40;99.90;;;;;;5003704;28;19920;-66
2022/07/05 03:10:19;;;;;;;;;;;10.30;99.90;;;;;;5000810;28;20717;-66
2022/07/05 03:12:44;;;;;;;;;;;10.20;99.90;;;;;;5003830;28;19918;-66
2022/07/05 03:15:10;;;;;;;;;;;10.20;99.90;;;;;;5001426;28;19914;-66
2022/07/05 03:17:35;;;;;;;;;;;10.10;99.90;;;;;;5002291;28;19913;-65
2022/07/05 03:20:01;;;;;;;;;;;10.10;99.90;;;;;;5009764;28;20314;-66
2022/07/05 03:22:26;;;;;;;;;;;10.10;99.90;;;;;;5008630;28;19952;-67
2022/07/05 03:24:52;;;;;;;;;;;10.10;99.90;;;;;;5008419;28;19917;-65
2022/07/05 03:27:18;;;;;;;;;;;10.20;99.90;;;;;;4985190;28;19913;-66
2022/07/05 03:29:43;;;;;;;;;;;10.10;99.90;;;;;;5007663;28;20299;-65
2022/07/05 03:32:09;;;;;;;;;;;10.10;99.90;;;;;;4995825;28;19940;-67
2022/07/05 03:34:34;;;;;;;;;;;10.20;99.90;;;;;;5003017;28;19917;-67
2022/07/05 03:37:00;;;;;;;;;;;10.20;99.90;;;;;;5007506;28;20304;-66
2022/07/05 03:39:25;;;;;;;;;;;10.20;99.90;;;;;;5006262;28;19956;-65
2022/07/05 03:41:51;;;;;;;;;;;10.30;99.90;;;;;;4989489;28;19917;-66
2022/07/05 03:44:17;;;;;;;;;;;10.20;99.90;;;;;;5002508;28;20287;-66
2022/07/05 03:46:42;;;;;;;;;;;10.20;99.90;;;;;;5006576;28;19944;-66
2022/07/05 03:49:08;;;;;;;;;;;10.20;99.90;;;;;;5001508;28;19918;-66
2022/07/05 03:51:33;;;;;;;;;;;10.10;99.90;;;;;;5007200;28;19917;-66
2022/07/05 03:53:59;;;;;;;;;;;10.20;99.90;;;;;;5008112;28;19913;-66
2022/07/05 03:56:25;;;;;;;;;;;10.20;99.90;;;;;;5000802;28;19913;-65
2022/07/05 03:58:50;;;;;;;;;;;10.10;99.90;;;;;;5005490;28;19997;-66
2022/07/05 04:01:16;;;;;;;;;;;10.00;99.90;;;;;;5003049;28;19968;-67
2022/07/05 04:03:42;;;;;;;;;;;9.90;99.90;;;;;;5002990;28;19932;-66
2022/07/05 04:06:08;;;;;;;;;;;9.90;99.90;;;;;;5004127;28;19918;-65
2022/07/05 04:08:34;;;;;;;;;;;9.90;99.90;;;;;;5002525;28;19918;-68
2022/07/05 04:10:59;;;;;;;;;;;10.00;99.90;;;;;;5004881;28;19924;-65
2022/07/05 04:13:25;;;;;;;;;;;10.00;99.90;;;;;;5006101;28;20402;-66
2022/07/05 04:15:53;;;;;;;;;;;10.00;99.90;;;;;;5010296;28;19913;-65
2022/07/05 04:18:18;;;;;;;;;;;9.90;99.90;;;;;;5006244;28;20438;-64
2022/07/05 04:20:44;;;;;;;;;;;10.00;99.90;;;;;;5008206;28;19929;-66
2022/07/05 04:23:09;;;;;;;;;;;10.10;99.90;;;;;;5008418;28;19917;-65
2022/07/05 04:25:35;;;;;;;;;;;10.10;99.90;;;;;;5006651;28;19940;-65
2022/07/05 04:28:01;;;;;;;;;;;10.20;99.90;;;;;;5006794;28;19961;-65
2022/07/05 04:30:26;;;;;;;;;;;10.20;99.90;;;;;;5007735;28;19987;-66
2022/07/05 04:32:52;;;;;;;;;;;10.20;99.90;;;;;;5009974;28;19918;-65
2022/07/05 04:35:18;;;;;;;;;;;10.10;99.90;;;;;;5011501;28;19928;-65
2022/07/05 04:37:43;;;;;;;;;;;10.10;99.90;;;;;;5006567;28;20005;-66
2022/07/05 04:40:10;;;;;;;;;;;10.10;99.90;;;;;;5006270;28;20052;-66
2022/07/05 04:42:36;;;;;;;;;;;10.10;99.90;;;;;;5001582;28;19924;-66
2022/07/05 04:45:01;;;;;;;;;;;10.20;99.90;;;;;;5005306;28;19913;-66
2022/07/05 04:47:27;;;;;;;;;;;10.20;99.90;;;;;;5009882;28;19956;-65
2022/07/05 04:49:54;;;;;;;;;;;10.30;99.90;;;;;;5007293;28;19917;-66
2022/07/05 04:52:20;;;;;;;;;;;10.40;99.90;;;;;;5007507;28;19917;-66
2022/07/05 04:54:46;;;;;;;;;;;10.30;99.90;;;;;;4991243;28;19917;-66
2022/07/05 04:57:12;;;;;;;;;;;10.30;99.90;;;;;;4992288;28;19914;-66
2022/07/05 04:59:37;;;;;;;;;;;10.40;99.90;;;;;;5008305;28;20012;-65
2022/07/05 05:02:03;;;;;;;;;;;10.60;99.90;;;;;;5005101;28;19917;-66
2022/07/05 05:04:28;;;;;;;;;;;10.70;99.90;;;;;;5005528;28;19921;-65
2022/07/05 05:06:54;;;;;;;;;;;10.70;99.90;;;;;;5006723;28;20012;-66
2022/07/05 05:09:20;;;;;;;;;;;10.80;99.90;;;;;;5007606;28;19918;-67
2022/07/05 05:11:46;;;;;;;;;;;11.00;99.90;;;;;;5009184;28;19973;-66
2022/07/05 05:14:12;;;;;;;;;;;11.10;99.90;;;;;;5003884;28;20320;-65
2022/07/05 05:16:37;;;;;;;;;;;11.40;99.90;;;;;;5008501;28;19927;-66
2022/07/05 05:19:03;;;;;;;;;;;11.50;99.90;;;;;;5006922;28;19960;-65
2022/07/05 05:21:29;;;;;;;;;;;11.80;99.90;;;;;;5005213;28;20008;-67
2022/07/05 05:23:54;;;;;;;;;;;12.00;99.90;;;;;;5024059;28;20007;-67
2022/07/05 05:26:20;;;;;;;;;;;12.20;99.90;;;;;;5018095;28;19976;-65
2022/07/05 05:28:45;;;;;;;;;;;12.20;99.90;;;;;;5008299;28;19913;-67
2022/07/05 05:31:11;;;;;;;;;;;12.30;99.90;;;;;;5010969;28;19921;-65
2022/07/05 05:33:36;;;;;;;;;;;12.30;99.90;;;;;;5007894;28;20015;-66
2022/07/05 05:36:02;;;;;;;;;;;12.40;99.90;;;;;;5006805;28;19917;-66
2022/07/05 05:38:28;;;;;;;;;;;12.60;99.90;;;;;;5006870;28;19913;-66
2022/07/05 05:40:53;;;;;;;;;;;12.80;99.90;;;;;;5007812;28;19917;-66
2022/07/05 05:43:19;;;;;;;;;;;12.90;99.90;;;;;;5015702;28;19913;-66
2022/07/05 05:45:45;;;;;;;;;;;13.00;99.90;;;;;;5009086;28;19913;-65
2022/07/05 05:48:10;;;;;;;;;;;13.10;99.90;;;;;;5004851;28;19914;-66
2022/07/05 05:50:38;;;;;;;;;;;13.30;99.90;;;;;;5005149;28;19922;-66
2022/07/05 05:53:04;;;;;;;;;;;13.70;99.90;;;;;;5002104;28;19928;-67
2022/07/05 05:55:30;;;;;;;;;;;13.90;99.90;;;;;;5006704;28;19914;-68
2022/07/05 05:57:57;;;;;;;;;;;14.00;99.90;;;;;;5009359;28;19948;-66
2022/07/05 06:00:23;;;;;;;;;;;14.10;99.90;;;;;;4999919;28;19921;-67
2022/07/05 06:02:49;;;;;;;;;;;14.10;99.90;;;;;;5027525;28;19922;-66
2022/07/05 06:05:15;;;;;;;;;;;14.00;99.90;;;;;;5003941;28;19921;-66
2022/07/05 06:07:54;;;;;;;;;;;14.00;99.90;;;;;;5022201;28;19914;-68
2022/07/05 06:10:25;;;;;;;;;;;14.00;99.90;;;;;;5006950;28;20192;-65
2022/07/05 06:12:52;;;;;;;;;;;14.10;99.90;;;;;;5004397;28;19917;-66
2022/07/05 06:15:18;;;;;;;;;;;14.20;99.90;;;;;;5005848;28;19917;-66
2022/07/05 06:17:43;;;;;;;;;;;14.30;99.90;;;;;;5004982;28;19920;-66
2022/07/05 06:20:10;;;;;;;;;;;14.40;99.90;;;;;;5008806;28;20390;-65
2022/07/05 06:22:36;;;;;;;;;;;14.50;99.90;;;;;;5007779;28;20371;-66
2022/07/05 06:25:02;;;;;;;;;;;14.70;99.90;;;;;;5005416;28;19920;-66
2022/07/05 06:27:28;;;;;;;;;;;14.80;99.90;;;;;;5002824;28;19921;-66
2022/07/05 06:29:54;;;;;;;;;;;14.80;99.90;;;;;;5006915;28;19924;-67
2022/07/05 06:32:19;;;;;;;;;;;14.70;99.90;;;;;;5000291;28;20031;-66
2022/07/05 06:34:45;;;;;;;;;;;14.80;99.90;;;;;;5007522;28;19921;-66
2022/07/05 06:37:10;;;;;;;;;;;14.80;99.90;;;;;;5004932;28;19917;-66
2022/07/05 06:39:36;;;;;;;;;;;14.80;99.90;;;;;;4992152;28;19920;-66
2022/07/05 06:42:02;;;;;;;;;;;14.80;99.90;;;;;;5011142;28;20359;-65
2022/07/05 06:44:28;;;;;;;;;;;14.90;99.90;;;;;;5003303;28;19940;-66
2022/07/05 06:46:53;;;;;;;;;;;14.90;99.90;;;;;;5006313;28;19924;-66
2022/07/05 06:49:19;;;;;;;;;;;15.00;99.90;;;;;;5006969;28;20208;-66
2022/07/05 06:51:44;;;;;;;;;;;15.10;99.90;;;;;;5006335;28;19928;-66
2022/07/05 06:54:10;;;;;;;;;;;15.20;99.90;;;;;;5008234;28;20052;-66
2022/07/05 06:56:36;;;;;;;;;;;15.30;99.90;;;;;;5007577;28;19996;-67
2022/07/05 06:59:01;;;;;;;;;;;15.30;99.90;;;;;;5007922;28;19956;-65
2022/07/05 07:01:27;;;;;;;;;;;15.30;99.90;;;;;;5003767;28;19917;-67
2022/07/05 07:03:52;;;;;;;;;;;15.50;99.90;;;;;;5005092;28;19949;-66
2022/07/05 07:06:18;;;;;;;;;;;15.50;99.90;;;;;;4999256;28;19921;-66
2022/07/05 07:11:28;;;;;;;;;;;15.60;99.90;;;;;;4997948;28;20390;-65
2022/07/05 07:13:54;;;;;;;;;;;15.70;99.90;;;;;;4988635;28;19921;-67
2022/07/05 07:16:19;;;;;;;;;;;15.70;99.90;;;;;;5002182;28;20267;-66
2022/07/05 07:18:45;;;;;;;;;;;15.70;99.90;;;;;;5000897;28;20248;-66
2022/07/05 07:21:10;;;;;;;;;;;15.90;99.90;;;;;;5000112;28;19948;-66
2022/07/05 07:23:36;;;;;;;;;;;16.00;99.90;;;;;;5001406;28;19921;-66
2022/07/05 07:26:02;;;;;;;;;;;15.90;99.90;;;;;;5000134;28;20014;-66
2022/07/05 07:28:28;;;;;;;;;;;15.70;99.90;;;;;;4985597;28;19971;-66
2022/07/05 07:30:54;;;;;;;;;;;15.80;99.90;;;;;;4994755;28;19929;-66
2022/07/05 07:33:19;;;;;;;;;;;15.80;99.90;;;;;;5004107;28;20007;-67
2022/07/05 07:35:45;;;;;;;;;;;15.90;99.90;;;;;;4986703;28;19968;-66
2022/07/05 07:38:10;;;;;;;;;;;15.90;99.90;;;;;;5003142;28;19922;-65
2022/07/05 07:40:36;;;;;;;;;;;16.00;99.90;;;;;;5003630;28;20383;-66
2022/07/05 07:43:02;;;;;;;;;;;16.10;99.90;;;;;;5005552;28;19931;-65
2022/07/05 07:45:30;;;;;;;;;;;16.20;99.90;;;;;;5001081;28;19921;-66
2022/07/05 07:47:56;;;;;;;;;;;16.20;99.90;;;;;;5001385;28;20383;-66
2022/07/05 07:50:22;;;;;;;;;;;16.20;99.90;;;;;;5004453;28;19925;-66
2022/07/05 07:52:48;;;;;;;;;;;16.30;99.90;;;;;;4999040;28;19933;-67
2022/07/05 07:55:15;;;;;;;;;;;16.30;99.90;;;;;;5008431;28;19928;-67
2022/07/05 07:57:41;;;;;;;;;;;16.40;99.90;;;;;;5005947;28;19921;-68
2022/07/05 08:00:07;;;;;;;;;;;16.50;99.90;;;;;;5002783;28;20370;-67
2022/07/05 08:02:32;;;;;;;;;;;16.60;99.90;;;;;;4990794;28;19923;-67
2022/07/05 08:04:58;;;;;;;;;;;16.70;99.90;;;;;;5007500;28;20031;-67
2022/07/05 08:07:24;;;;;;;;;;;16.90;99.90;;;;;;5006409;28;19928;-67
2022/07/05 08:09:50;;;;;;;;;;;17.10;99.90;;;;;;5008192;28;19922;-69
2022/07/05 08:12:16;;;;;;;;;;;17.10;99.90;;;;;;5009193;28;19921;-67
2022/07/05 08:14:42;;;;;;;;;;;17.30;99.90;;;;;;5002918;28;20055;-66
2022/07/05 08:17:08;;;;;;;;;;;17.50;99.90;;;;;;4998754;28;20425;-68
2022/07/05 08:22:19;;;;;;;;;;;18.10;99.90;;;;;;4999445;28;19976;-69
2022/07/05 08:24:45;;;;;;;;;;;18.30;99.90;;;;;;4995192;28;19921;-66
2022/07/05 08:27:10;;;;;;;;;;;18.30;99.90;;;;;;4998458;28;19944;-66
2022/07/05 08:29:36;;;;;;;;;;;18.50;99.90;;;;;;5001305;28;19921;-68
2022/07/05 08:32:02;;;;;;;;;;;18.50;99.90;;;;;;5001559;28;19996;-67
2022/07/05 08:34:27;;;;;;;;;;;18.50;99.90;;;;;;5002113;28;20013;-68
2022/07/05 08:36:53;;;;;;;;;;;18.60;99.90;;;;;;4999733;28;19968;-67
2022/07/05 08:39:18;;;;;;;;;;;18.80;99.90;;;;;;4985123;28;19917;-67
2022/07/05 08:41:49;;;;;;;;;;;19.00;99.90;;;;;;4987176;28;19917;-66
2022/07/05 08:44:18;;;;;;;;;;;19.10;99.90;;;;;;4999760;28;20443;-66
2022/07/05 08:46:44;;;;;;;;;;;19.10;99.90;;;;;;5003099;28;20395;-66
2022/07/05 08:49:10;;;;;;;;;;;19.20;99.90;;;;;;5008489;28;19921;-68
2022/07/05 08:51:39;;;;;;;;;;;19.20;99.90;;;;;;5004860;28;19952;-67
2022/07/05 08:54:05;;;;;;;;;;;19.00;99.90;;;;;;4991197;28;20363;-67
2022/07/05 08:56:31;;;;;;;;;;;19.00;99.70;;;;;;5004881;28;19991;-67
2022/07/05 08:58:56;;;;;;;;;;;19.00;99.90;;;;;;4995529;28;19921;-66
2022/07/05 09:01:24;;;;;;;;;;;19.00;98.70;;;;;;5002938;28;19925;-65
2022/07/05 09:03:51;;;;;;;;;;;19.00;98.80;;;;;;4984525;28;19914;-67
2022/07/05 09:06:17;;;;;;;;;;;19.00;99.30;;;;;;5006961;28;19920;-66
2022/07/05 09:08:43;;;;;;;;;;;18.90;99.90;;;;;;5006949;28;19920;-66
2022/07/05 09:11:10;;;;;;;;;;;19.00;99.70;;;;;;5005773;28;19925;-66
2022/07/05 09:13:37;;;;;;;;;;;19.00;99.70;;;;;;5004378;28;20067;-66
2022/07/05 09:16:03;;;;;;;;;;;19.00;99.10;;;;;;5006090;28;19921;-66
2022/07/05 09:18:45;;;;;;;;;;;19.10;98.50;;;;;;5005490;28;19913;-67
2022/07/05 09:21:22;;;;;;;;;;;19.30;98.20;;;;;;5003668;28;19922;-66
2022/07/05 09:23:57;;;;;;;;;;;19.60;97.60;;;;;;5004514;28;19921;-67
2022/07/05 09:26:32;;;;;;;;;;;20.00;96.40;;;;;;5003907;28;19959;-66
2022/07/05 09:28:58;;;;;;;;;;;19.90;95.50;;;;;;5011016;28;19917;-66
2022/07/05 09:31:28;;;;;;;;;;;20.00;95.00;;;;;;5004369;28;20248;-68
2022/07/05 09:33:53;;;;;;;;;;;20.00;95.00;;;;;;5005123;28;21945;-68
2022/07/05 09:36:19;;;;;;;;;;;19.80;94.80;;;;;;4988696;28;19913;-68
2022/07/05 09:38:51;;;;;;;;;;;19.90;95.20;;;;;;5003663;28;19914;-68
2022/07/05 09:41:17;;;;;;;;;;;20.00;95.50;;;;;;5000530;28;19924;-67
2022/07/05 09:43:43;;;;;;;;;;;20.10;95.40;;;;;;5000987;28;19921;-65
2022/07/05 09:46:08;;;;;;;;;;;20.30;94.50;;;;;;5000754;28;19971;-66
2022/07/05 09:48:34;;;;;;;;;;;20.10;94.70;;;;;;4996743;28;19940;-67
2022/07/05 09:51:10;;;;;;;;;;;20.10;94.60;;;;;;5001252;28;19917;-65
2022/07/05 09:53:46;;;;;;;;;;;20.00;94.10;;;;;;4979110;28;19926;-66
2022/07/05 09:56:13;;;;;;;;;;;20.10;94.40;;;;;;5007444;28;19913;-67
2022/07/05 09:58:39;;;;;;;;;;;20.00;94.20;;;;;;5006604;28;21565;-66
2022/07/05 10:01:25;;;;;;;;;;;20.20;94.00;;;;;;4999474;28;20383;-67
2022/07/05 10:03:54;;;;;;;;;;;20.30;93.40;;;;;;5003698;28;20024;-67
2022/07/05 10:06:24;;;;;;;;;;;20.60;92.90;;;;;;4983544;28;20004;-65
2022/07/05 10:08:50;;;;;;;;;;;20.70;92.80;;;;;;5000239;28;19964;-65
2022/07/05 10:11:20;;;;;;;;;;;20.70;92.10;;;;;;4998195;28;20509;-66
2022/07/05 10:13:47;;;;;;;;;;;20.50;92.50;;;;;;5000635;28;19924;-66
2022/07/05 10:16:14;;;;;;;;;;;20.50;93.50;;;;;;4998236;28;19914;-66
2022/07/05 10:18:40;;;;;;;;;;;20.40;93.30;;;;;;4986837;28;19914;-66
2022/07/05 10:21:14;;;;;;;;;;;20.20;93.60;;;;;;5004012;28;19925;-66
2022/07/05 10:23:47;;;;;;;;;;;20.40;94.10;;;;;;4981090;28;20302;-66
2022/07/05 10:26:14;;;;;;;;;;;20.80;93.00;;;;;;5003296;28;20347;-67
2022/07/05 10:28:43;;;;;;;;;;;20.90;92.00;;;;;;5007119;28;20000;-67
2022/07/05 10:31:09;;;;;;;;;;;20.80;92.00;;;;;;5000951;28;19917;-67
2022/07/05 10:33:35;;;;;;;;;;;20.80;92.20;;;;;;5001966;28;20378;-69
2022/07/05 10:36:01;;;;;;;;;;;20.30;92.40;;;;;;5004855;28;20350;-67
2022/07/05 10:38:27;;;;;;;;;;;20.20;93.10;;;;;;5005283;28;19917;-66
2022/07/05 10:40:55;;;;;;;;;;;20.50;92.90;;;;;;5006727;28;20387;-67
2022/07/05 10:43:21;;;;;;;;;;;20.60;92.50;;;;;;5005034;28;20008;-66
2022/07/05 10:45:48;;;;;;;;;;;20.70;92.00;;;;;;5004671;28;19914;-68
2022/07/05 10:48:15;;;;;;;;;;;20.70;91.90;;;;;;5004680;28;19914;-66
2022/07/05 10:51:03;;;;;;;;;;;20.70;91.60;;;;;;5004782;28;19925;-67
2022/07/05 10:53:49;;;;;;;;;;;20.90;91.10;;;;;;5005276;28;19958;-67
2022/07/05 10:56:15;;;;;;;;;;;20.90;91.50;;;;;;4996030;28;19951;-66
2022/07/05 10:58:41;;;;;;;;;;;20.70;91.80;;;;;;5005923;28;19968;-67
2022/07/05 11:01:19;;;;;;;;;;;20.60;91.80;;;;;;5007162;28;19924;-64
2022/07/05 11:03:47;;;;;;;;;;;20.60;92.20;;;;;;4999988;28;19922;-65
2022/07/05 11:06:22;;;;;;;;;;;20.30;92.50;;;;;;5006832;28;19921;-66
2022/07/05 11:08:56;;;;;;;;;;;20.40;92.70;;;;;;4995109;28;20089;-64
2022/07/05 11:11:32;;;;;;;;;;;20.50;93.00;;;;;;5001586;28;20143;-64
2022/07/05 11:13:59;;;;;;;;;;;21.10;91.50;;;;;;4999451;28;19917;-66
2022/07/05 11:16:24;;;;;;;;;;;21.10;91.00;;;;;;4963624;28;19918;-64
2022/07/05 11:19:13;;;;;;;;;;;21.10;91.30;;;;;;5006388;28;19918;-66
2022/07/05 11:21:40;;;;;;;;;;;21.00;91.50;;;;;;5000482;28;19943;-69
2022/07/05 11:24:17;;;;;;;;;;;20.70;92.20;;;;;;5007903;28;19914;-67
2022/07/05 11:26:43;;;;;;;;;;;20.50;92.60;;;;;;5009551;28;19913;-67
2022/07/05 11:29:28;;;;;;;;;;;20.70;92.20;;;;;;5011068;28;20387;-67
2022/07/05 11:32:14;;;;;;;;;;;20.90;92.10;;;;;;5005941;28;19917;-65
2022/07/05 11:34:40;;;;;;;;;;;20.80;92.10;;;;;;5004297;28;19917;-68
2022/07/05 11:37:28;;;;;;;;;;;20.90;92.00;;;;;;5006600;28;19920;-66
2022/07/05 11:40:12;;;;;;;;;;;21.20;91.30;;;;;;5007794;28;20015;-66
2022/07/05 11:42:45;;;;;;;;;;;21.10;91.60;;;;;;5006820;28;19917;-65
2022/07/05 11:45:10;;;;;;;;;;;21.30;91.40;;;;;;5009949;28;19937;-67
2022/07/05 11:47:36;;;;;;;;;;;21.30;90.90;;;;;;5007643;28;19921;-66
2022/07/05 11:50:02;;;;;;;;;;;21.20;90.90;;;;;;5008442;28;19917;-68
2022/07/05 11:52:31;;;;;;;;;;;21.10;91.30;;;;;;5007938;28;19945;-67
2022/07/05 11:54:57;;;;;;;;;;;21.10;91.20;;;;;;5009060;28;20339;-67
2022/07/05 11:57:23;;;;;;;;;;;21.40;91.50;;;;;;5004176;28;21740;-67
2022/07/05 11:59:49;;;;;;;;;;;21.60;90.10;;;;;;4991729;28;20237;-67
2022/07/05 12:02:15;;;;;;;;;;;21.60;90.30;;;;;;5010641;28;19921;-67
2022/07/05 12:04:46;;;;;;;;;;;21.60;90.70;;;;;;5005508;28;19997;-67
2022/07/05 12:07:11;;;;;;;;;;;21.50;91.30;;;;;;5005733;28;19918;-67
2022/07/05 12:15:17;;;;;;;;;;;21.70;90.30;;;;;;5003752;28;20304;-68
2022/07/05 12:17:47;;;;;;;;;;;21.90;91.10;;;;;;5003919;28;19921;-67
2022/07/05 12:20:13;;;;;;;;;;;21.90;90.50;;;;;;5008767;28;19925;-67
2022/07/05 12:22:40;;;;;;;;;;;22.00;90.10;;;;;;5005285;28;19920;-68
2022/07/05 12:25:09;;;;;;;;;;;22.00;90.60;;;;;;4986706;28;19932;-66
2022/07/05 12:27:39;;;;;;;;;;;22.10;91.10;;;;;;4989000;28;19914;-66
2022/07/05 12:30:05;;;;;;;;;;;22.20;90.50;;;;;;5002758;28;19917;-66
2022/07/05 12:32:31;;;;;;;;;;;22.00;90.90;;;;;;5008707;28;20020;-68
2022/07/05 12:34:57;;;;;;;;;;;21.80;90.80;;;;;;4992725;28;19983;-67
2022/07/05 12:37:23;;;;;;;;;;;21.20;91.70;;;;;;5008391;28;19925;-68
2022/07/05 12:39:50;;;;;;;;;;;21.40;91.90;;;;;;4992444;28;19924;-66
2022/07/05 12:42:34;;;;;;;;;;;21.40;91.30;;;;;;5002053;28;19922;-66
2022/07/05 12:45:09;;;;;;;;;;;21.50;91.80;;;;;;5006655;28;19917;-68
2022/07/05 12:47:53;;;;;;;;;;;21.70;91.50;;;;;;4991005;28;19921;-67
2022/07/05 12:50:28;;;;;;;;;;;22.10;90.90;;;;;;5006096;28;19924;-66
2022/07/05 12:58:47;;;;;;;;;;;22.00;91.30;;;;;;5005768;28;20015;-67
2022/07/05 13:01:31;;;;;;;;;;;21.80;91.10;;;;;;5000434;28;19925;-67
2022/07/05 13:03:58;;;;;;;;;;;22.00;91.20;;;;;;5003192;28;19972;-67
2022/07/05 13:06:38;;;;;;;;;;;22.10;90.70;;;;;;5004349;28;19924;-66
2022/07/05 13:09:04;;;;;;;;;;;21.70;90.80;;;;;;5004082;28;20306;-66
2022/07/05 13:11:32;;;;;;;;;;;21.60;91.80;;;;;;5009248;28;19943;-68
2022/07/05 13:13:58;;;;;;;;;;;21.70;91.40;;;;;;4991536;28;20447;-67
2022/07/05 13:16:24;;;;;;;;;;;21.40;92.10;;;;;;5007655;28;19927;-67
2022/07/05 13:18:49;;;;;;;;;;;21.40;92.50;;;;;;5005675;28;19917;-67
2022/07/05 13:21:18;;;;;;;;;;;21.30;92.50;;;;;;5002446;28;20450;-65
2022/07/05 13:23:44;;;;;;;;;;;21.20;93.40;;;;;;4984940;28;19913;-68
2022/07/05 13:26:09;;;;;;;;;;;21.50;93.00;;;;;;5008467;28;19996;-66
2022/07/05 13:28:35;;;;;;;;;;;21.50;93.00;;;;;;5009268;28;20032;-66
2022/07/05 13:31:00;;;;;;;;;;;21.60;93.00;;;;;;5001469;28;19929;-68
2022/07/05 13:33:26;;;;;;;;;;;21.70;92.80;;;;;;5003570;28;19918;-67
2022/07/05 13:35:52;;;;;;;;;;;21.70;93.00;;;;;;5006412;28;19914;-66
2022/07/05 13:38:17;;;;;;;;;;;21.50;93.60;;;;;;4987340;28;19913;-66
2022/07/05 13:40:43;;;;;;;;;;;21.40;94.10;;;;;;5006661;28;20366;-65
2022/07/05 13:43:08;;;;;;;;;;;21.50;93.90;;;;;;5005398;28;19918;-65
2022/07/05 13:45:34;;;;;;;;;;;21.40;93.60;;;;;;5006248;28;19956;-67
2022/07/05 13:47:59;;;;;;;;;;;21.30;93.80;;;;;;4983788;28;19917;-68
2022/07/05 13:50:31;;;;;;;;;;;21.50;93.60;;;;;;5000641;28;19918;-66
2022/07/05 13:52:57;;;;;;;;;;;21.50;92.90;;;;;;5004282;28;19918;-66
2022/07/05 13:55:22;;;;;;;;;;;21.80;92.60;;;;;;5005776;28;20417;-66
2022/07/05 13:57:48;;;;;;;;;;;22.00;92.00;;;;;;5004827;28;19918;-66
2022/07/05 14:00:14;;;;;;;;;;;22.20;92.10;;;;;;5012701;28;19918;-67
2022/07/05 14:02:39;;;;;;;;;;;22.50;91.30;;;;;;5008832;28;19917;-66
2022/07/05 14:05:07;;;;;;;;;;;22.40;90.80;;;;;;5011885;28;20235;-67
2022/07/05 14:07:33;;;;;;;;;;;22.10;91.60;;;;;;5006579;28;20017;-67
2022/07/05 14:09:58;;;;;;;;;;;21.90;92.50;;;;;;4998915;28;20012;-67
2022/07/05 14:12:24;;;;;;;;;;;21.80;93.00;;;;;;5010736;28;19925;-66
2022/07/05 14:14:49;;;;;;;;;;;21.90;93.30;;;;;;5011166;28;19913;-68
2022/07/05 14:17:15;;;;;;;;;;;21.90;93.40;;;;;;5008532;28;19917;-68
2022/07/05 14:19:40;;;;;;;;;;;21.90;93.50;;;;;;5009986;28;19919;-70
2022/07/05 14:22:06;;;;;;;;;;;21.80;93.50;;;;;;5005294;28;20008;-67
2022/07/05 14:24:32;;;;;;;;;;;22.10;94.00;;;;;;4998798;28;20361;-68
2022/07/05 14:26:58;;;;;;;;;;;22.20;93.40;;;;;;5008137;28;19925;-67
2022/07/05 14:29:23;;;;;;;;;;;22.20;92.90;;;;;;5005254;28;19924;-66
2022/07/05 14:31:49;;;;;;;;;;;21.80;93.50;;;;;;4988883;28;20387;-67
2022/07/05 14:34:14;;;;;;;;;;;21.70;94.50;;;;;;5003493;28;19921;-67